sensor_id;sensor_type;location;lat;lon;timestamp;P1;durP1;ratioP1;P2;durP2;ratioP2
46447;SDS011;32145;50.390;30.778;2024-02-16T00:02:31;54.28;;;12.93;;
46447;SDS011;32145;50.390;30.778;2024-02-16T00:05:26;50.58;;;12.05;;
46447;SDS011;32145;50.390;30.778;2024-02-16T00:08:20;52.40;;;11.23;;
46447;SDS011;32145;50.390;30.778;2024-02-16T00:11:14;35.55;;;10.82;;
46447;SDS011;32145;50.390;30.778;2024-02-16T00:14:11;36.78;;;10.77;;
46447;SDS011;32145;50.390;30.778;2024-02-16T00:17:07;37.25;;;11.23;;
46447;SDS011;32145;50.390;30.778;2024-02-16T00:20:05;47.58;;;11.60;;
46447;SDS011;32145;50.390;30.778;2024-02-16T00:23:02;38.67;;;11.23;;
46447;SDS011;32145;50.390;30.778;2024-02-16T00:25:59;53.47;;;12.73;;
46447;SDS011;32145;50.390;30.778;2024-02-16T00:28:57;49.75;;;15.30;;
46447;SDS011;32145;50.390;30.778;2024-02-16T00:31:51;47.10;;;13.13;;
46447;SDS011;32145;50.390;30.778;2024-02-16T00:34:45;40.33;;;11.95;;
46447;SDS011;32145;50.390;30.778;2024-02-16T00:37:41;42.38;;;12.95;;
46447;SDS011;32145;50.390;30.778;2024-02-16T00:40:36;41.55;;;12.05;;
46447;SDS011;32145;50.390;30.778;2024-02-16T00:43:30;56.38;;;13.20;;
46447;SDS011;32145;50.390;30.778;2024-02-16T00:46:24;46.78;;;12.93;;
46447;SDS011;32145;50.390;30.778;2024-02-16T00:49:18;40.75;;;12.25;;
46447;SDS011;32145;50.390;30.778;2024-02-16T00:52:13;39.42;;;12.88;;
46447;SDS011;32145;50.390;30.778;2024-02-16T00:55:08;49.45;;;13.07;;
46447;SDS011;32145;50.390;30.778;2024-02-16T00:58:05;50.90;;;12.73;;
46447;SDS011;32145;50.390;30.778;2024-02-16T01:01:01;53.03;;;12.70;;
46447;SDS011;32145;50.390;30.778;2024-02-16T01:03:57;39.08;;;13.88;;
46447;SDS011;32145;50.390;30.778;2024-02-16T01:06:52;56.55;;;17.40;;
46447;SDS011;32145;50.390;30.778;2024-02-16T01:09:46;49.80;;;14.55;;
46447;SDS011;32145;50.390;30.778;2024-02-16T01:12:42;39.25;;;12.02;;
46447;SDS011;32145;50.390;30.778;2024-02-16T01:15:36;65.53;;;13.13;;
46447;SDS011;32145;50.390;30.778;2024-02-16T01:18:30;56.33;;;12.32;;
46447;SDS011;32145;50.390;30.778;2024-02-16T01:21:25;37.78;;;11.65;;
46447;SDS011;32145;50.390;30.778;2024-02-16T01:24:19;49.38;;;13.60;;
46447;SDS011;32145;50.390;30.778;2024-02-16T01:27:13;52.58;;;13.32;;
46447;SDS011;32145;50.390;30.778;2024-02-16T01:30:09;55.58;;;13.07;;
46447;SDS011;32145;50.390;30.778;2024-02-16T01:33:04;52.88;;;13.05;;
46447;SDS011;32145;50.390;30.778;2024-02-16T01:35:59;59.15;;;13.63;;
46447;SDS011;32145;50.390;30.778;2024-02-16T01:38:53;65.60;;;13.23;;
46447;SDS011;32145;50.390;30.778;2024-02-16T01:41:47;65.22;;;17.30;;
46447;SDS011;32145;50.390;30.778;2024-02-16T01:44:42;72.93;;;15.27;;
46447;SDS011;32145;50.390;30.778;2024-02-16T01:47:37;64.32;;;13.98;;
46447;SDS011;32145;50.390;30.778;2024-02-16T01:50:34;51.10;;;12.68;;
46447;SDS011;32145;50.390;30.778;2024-02-16T01:53:30;54.60;;;14.25;;
46447;SDS011;32145;50.390;30.778;2024-02-16T01:56:27;59.88;;;16.30;;
46447;SDS011;32145;50.390;30.778;2024-02-16T01:59:25;63.05;;;16.38;;
46447;SDS011;32145;50.390;30.778;2024-02-16T02:02:21;72.07;;;20.98;;
46447;SDS011;32145;50.390;30.778;2024-02-16T02:05:19;64.22;;;22.75;;
46447;SDS011;32145;50.390;30.778;2024-02-16T02:08:13;59.00;;;17.90;;
46447;SDS011;32145;50.390;30.778;2024-02-16T02:11:08;75.82;;;16.42;;
46447;SDS011;32145;50.390;30.778;2024-02-16T02:14:04;56.40;;;15.07;;
46447;SDS011;32145;50.390;30.778;2024-02-16T02:17:00;99.50;;;15.02;;
46447;SDS011;32145;50.390;30.778;2024-02-16T02:19:56;69.53;;;13.40;;
46447;SDS011;32145;50.390;30.778;2024-02-16T02:22:54;72.88;;;14.50;;
46447;SDS011;32145;50.390;30.778;2024-02-16T02:25:51;79.15;;;14.00;;
46447;SDS011;32145;50.390;30.778;2024-02-16T02:28:47;84.63;;;14.18;;
46447;SDS011;32145;50.390;30.778;2024-02-16T02:31:43;59.55;;;13.05;;
46447;SDS011;32145;50.390;30.778;2024-02-16T02:34:40;86.93;;;13.95;;
46447;SDS011;32145;50.390;30.778;2024-02-16T02:37:36;67.30;;;13.27;;
46447;SDS011;32145;50.390;30.778;2024-02-16T02:40:34;70.82;;;14.43;;
46447;SDS011;32145;50.390;30.778;2024-02-16T02:43:30;57.15;;;15.00;;
46447;SDS011;32145;50.390;30.778;2024-02-16T02:46:27;50.13;;;14.27;;
46447;SDS011;32145;50.390;30.778;2024-02-16T02:49:23;45.65;;;15.00;;
46447;SDS011;32145;50.390;30.778;2024-02-16T02:52:20;36.15;;;14.07;;
46447;SDS011;32145;50.390;30.778;2024-02-16T02:55:17;34.70;;;14.73;;
46447;SDS011;32145;50.390;30.778;2024-02-16T02:58:15;37.17;;;15.70;;
46447;SDS011;32145;50.390;30.778;2024-02-16T03:01:11;41.47;;;15.88;;
46447;SDS011;32145;50.390;30.778;2024-02-16T03:04:07;35.05;;;14.57;;
46447;SDS011;32145;50.390;30.778;2024-02-16T03:07:02;32.55;;;14.70;;
46447;SDS011;32145;50.390;30.778;2024-02-16T03:09:56;32.45;;;15.48;;
46447;SDS011;32145;50.390;30.778;2024-02-16T03:12:53;31.83;;;14.95;;
46447;SDS011;32145;50.390;30.778;2024-02-16T03:15:50;30.05;;;13.65;;
46447;SDS011;32145;50.390;30.778;2024-02-16T03:18:47;36.17;;;16.05;;
46447;SDS011;32145;50.390;30.778;2024-02-16T03:21:43;26.38;;;13.13;;
46447;SDS011;32145;50.390;30.778;2024-02-16T03:24:39;25.73;;;12.65;;
46447;SDS011;32145;50.390;30.778;2024-02-16T03:27:36;23.23;;;12.27;;
46447;SDS011;32145;50.390;30.778;2024-02-16T03:30:32;25.33;;;12.77;;
46447;SDS011;32145;50.390;30.778;2024-02-16T03:33:30;27.83;;;13.65;;
46447;SDS011;32145;50.390;30.778;2024-02-16T03:36:26;23.10;;;11.60;;
46447;SDS011;32145;50.390;30.778;2024-02-16T03:39:23;21.33;;;11.27;;
46447;SDS011;32145;50.390;30.778;2024-02-16T03:42:19;24.20;;;12.30;;
46447;SDS011;32145;50.390;30.778;2024-02-16T03:45:13;22.27;;;12.05;;
46447;SDS011;32145;50.390;30.778;2024-02-16T03:48:07;23.95;;;12.45;;
46447;SDS011;32145;50.390;30.778;2024-02-16T03:51:03;20.67;;;11.80;;
46447;SDS011;32145;50.390;30.778;2024-02-16T03:53:58;20.67;;;11.65;;
46447;SDS011;32145;50.390;30.778;2024-02-16T03:56:52;20.23;;;10.75;;
46447;SDS011;32145;50.390;30.778;2024-02-16T03:59:47;19.27;;;10.63;;
46447;SDS011;32145;50.390;30.778;2024-02-16T04:02:41;20.85;;;10.57;;
46447;SDS011;32145;50.390;30.778;2024-02-16T04:05:38;19.27;;;10.32;;
46447;SDS011;32145;50.390;30.778;2024-02-16T04:08:33;21.10;;;10.80;;
46447;SDS011;32145;50.390;30.778;2024-02-16T04:11:28;19.30;;;10.68;;
46447;SDS011;32145;50.390;30.778;2024-02-16T04:14:22;20.30;;;10.57;;
46447;SDS011;32145;50.390;30.778;2024-02-16T04:17:18;19.65;;;11.32;;
46447;SDS011;32145;50.390;30.778;2024-02-16T04:20:15;20.02;;;10.52;;
46447;SDS011;32145;50.390;30.778;2024-02-16T04:23:12;22.27;;;11.25;;
46447;SDS011;32145;50.390;30.778;2024-02-16T04:26:03;23.52;;;11.35;;
46447;SDS011;32145;50.390;30.778;2024-02-16T04:29:00;21.75;;;11.60;;
46447;SDS011;32145;50.390;30.778;2024-02-16T04:31:50;21.50;;;11.20;;
46447;SDS011;32145;50.390;30.778;2024-02-16T04:34:38;24.27;;;11.90;;
46447;SDS011;32145;50.390;30.778;2024-02-16T04:37:35;23.90;;;12.40;;
46447;SDS011;32145;50.390;30.778;2024-02-16T04:40:25;22.85;;;11.32;;
46447;SDS011;32145;50.390;30.778;2024-02-16T04:43:23;24.17;;;12.00;;
46447;SDS011;32145;50.390;30.778;2024-02-16T04:46:14;23.58;;;12.38;;
46447;SDS011;32145;50.390;30.778;2024-02-16T04:49:08;22.23;;;11.40;;
46447;SDS011;32145;50.390;30.778;2024-02-16T04:52:05;22.50;;;12.05;;
46447;SDS011;32145;50.390;30.778;2024-02-16T04:54:59;24.88;;;12.38;;
46447;SDS011;32145;50.390;30.778;2024-02-16T04:57:54;21.48;;;11.82;;
46447;SDS011;32145;50.390;30.778;2024-02-16T05:00:49;21.70;;;11.60;;
46447;SDS011;32145;50.390;30.778;2024-02-16T05:03:46;21.05;;;11.13;;
46447;SDS011;32145;50.390;30.778;2024-02-16T05:06:42;18.83;;;11.13;;
46447;SDS011;32145;50.390;30.778;2024-02-16T05:09:39;20.08;;;10.35;;
46447;SDS011;32145;50.390;30.778;2024-02-16T05:12:33;19.60;;;10.85;;
46447;SDS011;32145;50.390;30.778;2024-02-16T05:15:30;19.27;;;10.90;;
46447;SDS011;32145;50.390;30.778;2024-02-16T05:18:25;22.17;;;12.52;;
46447;SDS011;32145;50.390;30.778;2024-02-16T05:21:20;19.88;;;12.00;;
46447;SDS011;32145;50.390;30.778;2024-02-16T05:24:14;19.80;;;11.27;;
46447;SDS011;32145;50.390;30.778;2024-02-16T05:27:08;22.10;;;13.25;;
46447;SDS011;32145;50.390;30.778;2024-02-16T05:30:03;23.85;;;13.40;;
46447;SDS011;32145;50.390;30.778;2024-02-16T05:33:02;19.92;;;12.20;;
46447;SDS011;32145;50.390;30.778;2024-02-16T05:35:57;20.35;;;11.75;;
46447;SDS011;32145;50.390;30.778;2024-02-16T05:38:52;20.40;;;12.40;;
46447;SDS011;32145;50.390;30.778;2024-02-16T05:41:46;19.85;;;12.05;;
46447;SDS011;32145;50.390;30.778;2024-02-16T05:44:40;20.65;;;11.63;;
46447;SDS011;32145;50.390;30.778;2024-02-16T05:47:35;20.38;;;11.40;;
46447;SDS011;32145;50.390;30.778;2024-02-16T05:50:29;22.77;;;12.35;;
46447;SDS011;32145;50.390;30.778;2024-02-16T05:53:25;26.30;;;15.07;;
46447;SDS011;32145;50.390;30.778;2024-02-16T05:56:19;22.27;;;12.75;;
46447;SDS011;32145;50.390;30.778;2024-02-16T05:59:13;23.17;;;12.30;;
46447;SDS011;32145;50.390;30.778;2024-02-16T06:02:08;24.23;;;12.30;;
46447;SDS011;32145;50.390;30.778;2024-02-16T06:05:04;23.30;;;12.25;;
46447;SDS011;32145;50.390;30.778;2024-02-16T06:08:01;24.83;;;11.93;;
46447;SDS011;32145;50.390;30.778;2024-02-16T06:10:59;23.63;;;12.15;;
46447;SDS011;32145;50.390;30.778;2024-02-16T06:13:55;24.42;;;12.80;;
46447;SDS011;32145;50.390;30.778;2024-02-16T06:16:52;27.23;;;13.75;;
46447;SDS011;32145;50.390;30.778;2024-02-16T06:19:48;25.73;;;13.55;;
46447;SDS011;32145;50.390;30.778;2024-02-16T06:22:45;26.45;;;13.18;;
46447;SDS011;32145;50.390;30.778;2024-02-16T06:25:41;24.65;;;13.65;;
46447;SDS011;32145;50.390;30.778;2024-02-16T06:28:39;26.15;;;13.45;;
46447;SDS011;32145;50.390;30.778;2024-02-16T06:31:35;28.48;;;14.40;;
46447;SDS011;32145;50.390;30.778;2024-02-16T06:34:31;26.85;;;14.15;;
46447;SDS011;32145;50.390;30.778;2024-02-16T06:37:28;33.83;;;16.65;;
46447;SDS011;32145;50.390;30.778;2024-02-16T06:40:24;42.47;;;18.58;;
46447;SDS011;32145;50.390;30.778;2024-02-16T06:43:20;40.10;;;17.83;;
46447;SDS011;32145;50.390;30.778;2024-02-16T06:46:16;43.90;;;18.52;;
46447;SDS011;32145;50.390;30.778;2024-02-16T06:49:10;38.38;;;18.20;;
46447;SDS011;32145;50.390;30.778;2024-02-16T06:52:05;40.15;;;18.23;;
46447;SDS011;32145;50.390;30.778;2024-02-16T06:54:59;37.50;;;17.25;;
46447;SDS011;32145;50.390;30.778;2024-02-16T06:57:54;35.22;;;17.42;;
46447;SDS011;32145;50.390;30.778;2024-02-16T07:00:48;38.58;;;17.70;;
46447;SDS011;32145;50.390;30.778;2024-02-16T07:03:44;36.78;;;17.48;;
46447;SDS011;32145;50.390;30.778;2024-02-16T07:06:38;39.95;;;18.80;;
46447;SDS011;32145;50.390;30.778;2024-02-16T07:09:35;37.85;;;18.85;;
46447;SDS011;32145;50.390;30.778;2024-02-16T07:12:31;37.65;;;17.73;;
46447;SDS011;32145;50.390;30.778;2024-02-16T07:15:25;40.97;;;18.27;;
46447;SDS011;32145;50.390;30.778;2024-02-16T07:18:20;35.00;;;17.10;;
46447;SDS011;32145;50.390;30.778;2024-02-16T07:21:15;34.53;;;16.63;;
46447;SDS011;32145;50.390;30.778;2024-02-16T07:24:10;32.47;;;17.23;;
46447;SDS011;32145;50.390;30.778;2024-02-16T07:27:04;35.38;;;17.33;;
46447;SDS011;32145;50.390;30.778;2024-02-16T07:29:58;35.33;;;16.50;;
46447;SDS011;32145;50.390;30.778;2024-02-16T07:32:52;33.72;;;16.88;;
46447;SDS011;32145;50.390;30.778;2024-02-16T07:35:47;30.63;;;14.98;;
46447;SDS011;32145;50.390;30.778;2024-02-16T07:38:43;27.67;;;14.57;;
46447;SDS011;32145;50.390;30.778;2024-02-16T07:41:37;32.65;;;14.70;;
46447;SDS011;32145;50.390;30.778;2024-02-16T07:44:31;31.60;;;16.13;;
46447;SDS011;32145;50.390;30.778;2024-02-16T07:47:26;26.13;;;14.60;;
46447;SDS011;32145;50.390;30.778;2024-02-16T07:50:20;31.63;;;15.73;;
46447;SDS011;32145;50.390;30.778;2024-02-16T07:53:15;37.40;;;16.08;;
46447;SDS011;32145;50.390;30.778;2024-02-16T07:56:11;29.70;;;15.45;;
46447;SDS011;32145;50.390;30.778;2024-02-16T07:59:05;31.55;;;15.75;;
46447;SDS011;32145;50.390;30.778;2024-02-16T08:01:59;31.42;;;15.15;;
46447;SDS011;32145;50.390;30.778;2024-02-16T08:04:50;30.70;;;15.63;;
46447;SDS011;32145;50.390;30.778;2024-02-16T08:07:38;33.53;;;16.33;;
46447;SDS011;32145;50.390;30.778;2024-02-16T08:10:28;32.58;;;15.93;;
46447;SDS011;32145;50.390;30.778;2024-02-16T08:13:24;27.92;;;15.13;;
46447;SDS011;32145;50.390;30.778;2024-02-16T08:16:18;30.15;;;15.60;;
46447;SDS011;32145;50.390;30.778;2024-02-16T08:19:13;28.77;;;14.20;;
46447;SDS011;32145;50.390;30.778;2024-02-16T08:22:08;31.35;;;14.93;;
46447;SDS011;32145;50.390;30.778;2024-02-16T08:25:02;29.17;;;14.85;;
46447;SDS011;32145;50.390;30.778;2024-02-16T08:27:56;30.15;;;15.93;;
46447;SDS011;32145;50.390;30.778;2024-02-16T08:30:52;31.90;;;15.88;;
46447;SDS011;32145;50.390;30.778;2024-02-16T08:33:46;32.45;;;16.45;;
46447;SDS011;32145;50.390;30.778;2024-02-16T08:36:43;36.17;;;16.35;;
46447;SDS011;32145;50.390;30.778;2024-02-16T08:39:38;33.08;;;15.88;;
46447;SDS011;32145;50.390;30.778;2024-02-16T08:42:32;30.73;;;14.98;;
46447;SDS011;32145;50.390;30.778;2024-02-16T08:45:26;31.10;;;15.25;;
46447;SDS011;32145;50.390;30.778;2024-02-16T08:48:23;32.97;;;15.27;;
46447;SDS011;32145;50.390;30.778;2024-02-16T08:51:18;32.22;;;14.90;;
46447;SDS011;32145;50.390;30.778;2024-02-16T08:54:12;30.20;;;15.00;;
46447;SDS011;32145;50.390;30.778;2024-02-16T08:57:06;30.38;;;15.65;;
46447;SDS011;32145;50.390;30.778;2024-02-16T09:00:01;29.00;;;15.18;;
46447;SDS011;32145;50.390;30.778;2024-02-16T09:02:55;31.70;;;14.40;;
46447;SDS011;32145;50.390;30.778;2024-02-16T09:05:51;27.23;;;14.25;;
46447;SDS011;32145;50.390;30.778;2024-02-16T09:08:45;28.55;;;14.18;;
46447;SDS011;32145;50.390;30.778;2024-02-16T09:11:39;28.73;;;14.38;;
46447;SDS011;32145;50.390;30.778;2024-02-16T09:14:34;29.83;;;14.10;;
46447;SDS011;32145;50.390;30.778;2024-02-16T09:17:28;30.27;;;14.48;;
46447;SDS011;32145;50.390;30.778;2024-02-16T09:20:23;32.45;;;15.20;;
46447;SDS011;32145;50.390;30.778;2024-02-16T09:23:18;29.88;;;15.68;;
46447;SDS011;32145;50.390;30.778;2024-02-16T09:26:13;29.92;;;15.85;;
46447;SDS011;32145;50.390;30.778;2024-02-16T09:29:07;31.65;;;14.80;;
46447;SDS011;32145;50.390;30.778;2024-02-16T09:32:04;30.83;;;15.68;;
46447;SDS011;32145;50.390;30.778;2024-02-16T09:35:00;30.77;;;15.55;;
46447;SDS011;32145;50.390;30.778;2024-02-16T09:37:57;33.15;;;15.02;;
46447;SDS011;32145;50.390;30.778;2024-02-16T09:40:54;36.15;;;15.52;;
46447;SDS011;32145;50.390;30.778;2024-02-16T09:43:51;30.20;;;14.40;;
46447;SDS011;32145;50.390;30.778;2024-02-16T09:46:47;35.05;;;15.85;;
46447;SDS011;32145;50.390;30.778;2024-02-16T09:49:44;31.88;;;14.98;;
46447;SDS011;32145;50.390;30.778;2024-02-16T09:52:40;32.65;;;15.32;;
46447;SDS011;32145;50.390;30.778;2024-02-16T09:55:37;32.10;;;14.32;;
46447;SDS011;32145;50.390;30.778;2024-02-16T09:58:36;33.80;;;15.70;;
46447;SDS011;32145;50.390;30.778;2024-02-16T10:01:32;33.13;;;14.10;;
46447;SDS011;32145;50.390;30.778;2024-02-16T10:04:26;31.00;;;14.65;;
46447;SDS011;32145;50.390;30.778;2024-02-16T10:07:30;24.65;;;13.07;;
46447;SDS011;32145;50.390;30.778;2024-02-16T10:10:27;25.75;;;12.63;;
46447;SDS011;32145;50.390;30.778;2024-02-16T10:13:24;23.15;;;11.23;;
46447;SDS011;32145;50.390;30.778;2024-02-16T10:16:22;22.67;;;12.02;;
46447;SDS011;32145;50.390;30.778;2024-02-16T10:19:18;22.25;;;12.13;;
46447;SDS011;32145;50.390;30.778;2024-02-16T10:22:15;20.02;;;11.00;;
46447;SDS011;32145;50.390;30.778;2024-02-16T10:25:12;21.77;;;12.20;;
46447;SDS011;32145;50.390;30.778;2024-02-16T10:28:08;20.95;;;11.43;;
46447;SDS011;32145;50.390;30.778;2024-02-16T10:31:04;22.08;;;11.98;;
46447;SDS011;32145;50.390;30.778;2024-02-16T10:34:00;20.95;;;11.45;;
46447;SDS011;32145;50.390;30.778;2024-02-16T10:36:55;23.83;;;12.85;;
46447;SDS011;32145;50.390;30.778;2024-02-16T10:39:53;24.45;;;12.55;;
46447;SDS011;32145;50.390;30.778;2024-02-16T10:42:48;21.85;;;12.35;;
46447;SDS011;32145;50.390;30.778;2024-02-16T10:45:43;22.23;;;12.02;;
46447;SDS011;32145;50.390;30.778;2024-02-16T10:48:37;20.10;;;12.00;;
46447;SDS011;32145;50.390;30.778;2024-02-16T10:51:34;22.15;;;12.05;;
46447;SDS011;32145;50.390;30.778;2024-02-16T10:54:32;21.30;;;11.90;;
46447;SDS011;32145;50.390;30.778;2024-02-16T10:57:28;22.23;;;12.23;;
46447;SDS011;32145;50.390;30.778;2024-02-16T11:00:23;22.17;;;12.55;;
46447;SDS011;32145;50.390;30.778;2024-02-16T11:03:21;22.40;;;12.00;;
46447;SDS011;32145;50.390;30.778;2024-02-16T11:06:16;19.67;;;11.57;;
46447;SDS011;32145;50.390;30.778;2024-02-16T11:09:22;23.70;;;13.27;;
46447;SDS011;32145;50.390;30.778;2024-02-16T11:12:17;18.90;;;11.88;;
46447;SDS011;32145;50.390;30.778;2024-02-16T11:15:11;20.52;;;12.40;;
46447;SDS011;32145;50.390;30.778;2024-02-16T11:18:07;21.23;;;12.27;;
46447;SDS011;32145;50.390;30.778;2024-02-16T11:21:05;18.90;;;11.68;;
46447;SDS011;32145;50.390;30.778;2024-02-16T11:24:06;19.25;;;10.50;;
46447;SDS011;32145;50.390;30.778;2024-02-16T11:27:02;15.02;;;8.65;;
46447;SDS011;32145;50.390;30.778;2024-02-16T11:29:59;17.00;;;10.27;;
46447;SDS011;32145;50.390;30.778;2024-02-16T11:32:57;14.15;;;8.85;;
46447;SDS011;32145;50.390;30.778;2024-02-16T11:35:54;11.70;;;7.75;;
46447;SDS011;32145;50.390;30.778;2024-02-16T11:38:50;13.35;;;7.88;;
46447;SDS011;32145;50.390;30.778;2024-02-16T11:41:47;12.57;;;8.02;;
46447;SDS011;32145;50.390;30.778;2024-02-16T11:44:51;13.63;;;7.80;;
46447;SDS011;32145;50.390;30.778;2024-02-16T11:47:46;14.73;;;8.82;;
46447;SDS011;32145;50.390;30.778;2024-02-16T11:50:41;15.52;;;8.23;;
46447;SDS011;32145;50.390;30.778;2024-02-16T11:53:37;12.88;;;7.15;;
46447;SDS011;32145;50.390;30.778;2024-02-16T11:56:33;12.70;;;7.93;;
46447;SDS011;32145;50.390;30.778;2024-02-16T11:59:28;13.77;;;8.07;;
46447;SDS011;32145;50.390;30.778;2024-02-16T12:02:24;13.02;;;8.20;;
46447;SDS011;32145;50.390;30.778;2024-02-16T12:05:18;13.65;;;8.43;;
46447;SDS011;32145;50.390;30.778;2024-02-16T12:08:13;14.43;;;9.15;;
46447;SDS011;32145;50.390;30.778;2024-02-16T12:11:07;12.07;;;7.57;;
46447;SDS011;32145;50.390;30.778;2024-02-16T12:14:03;16.98;;;9.95;;
46447;SDS011;32145;50.390;30.778;2024-02-16T12:16:58;18.33;;;10.30;;
46447;SDS011;32145;50.390;30.778;2024-02-16T12:19:54;14.45;;;7.93;;
46447;SDS011;32145;50.390;30.778;2024-02-16T12:22:48;11.88;;;7.35;;
46447;SDS011;32145;50.390;30.778;2024-02-16T12:25:43;11.68;;;7.50;;
46447;SDS011;32145;50.390;30.778;2024-02-16T12:28:37;10.13;;;6.80;;
46447;SDS011;32145;50.390;30.778;2024-02-16T12:31:31;15.57;;;10.20;;
46447;SDS011;32145;50.390;30.778;2024-02-16T12:34:27;15.20;;;9.68;;
46447;SDS011;32145;50.390;30.778;2024-02-16T12:37:25;12.07;;;8.25;;
46447;SDS011;32145;50.390;30.778;2024-02-16T12:40:20;14.07;;;8.63;;
46447;SDS011;32145;50.390;30.778;2024-02-16T12:43:14;16.42;;;10.10;;
46447;SDS011;32145;50.390;30.778;2024-02-16T12:46:08;13.48;;;8.80;;
46447;SDS011;32145;50.390;30.778;2024-02-16T12:49:03;13.75;;;8.68;;
46447;SDS011;32145;50.390;30.778;2024-02-16T12:51:57;17.80;;;10.43;;
46447;SDS011;32145;50.390;30.778;2024-02-16T12:54:53;15.65;;;10.38;;
46447;SDS011;32145;50.390;30.778;2024-02-16T12:57:49;16.27;;;10.27;;
46447;SDS011;32145;50.390;30.778;2024-02-16T13:00:46;15.18;;;9.48;;
46447;SDS011;32145;50.390;30.778;2024-02-16T13:03:42;16.55;;;10.13;;
46447;SDS011;32145;50.390;30.778;2024-02-16T13:06:39;17.10;;;10.10;;
46447;SDS011;32145;50.390;30.778;2024-02-16T13:09:35;16.45;;;9.52;;
46447;SDS011;32145;50.390;30.778;2024-02-16T13:12:33;14.80;;;9.20;;
46447;SDS011;32145;50.390;30.778;2024-02-16T13:15:29;15.70;;;9.23;;
46447;SDS011;32145;50.390;30.778;2024-02-16T13:18:25;14.27;;;9.55;;
46447;SDS011;32145;50.390;30.778;2024-02-16T13:21:22;20.88;;;12.18;;
46447;SDS011;32145;50.390;30.778;2024-02-16T13:24:18;20.17;;;11.63;;
46447;SDS011;32145;50.390;30.778;2024-02-16T13:27:14;48.03;;;31.92;;
46447;SDS011;32145;50.390;30.778;2024-02-16T13:30:12;26.63;;;17.45;;
46447;SDS011;32145;50.390;30.778;2024-02-16T13:33:09;27.40;;;16.67;;
46447;SDS011;32145;50.390;30.778;2024-02-16T13:39:20;53.20;;;28.95;;
46447;SDS011;32145;50.390;30.778;2024-02-16T13:42:17;30.27;;;17.65;;
46447;SDS011;32145;50.390;30.778;2024-02-16T13:45:14;36.20;;;21.05;;
46447;SDS011;32145;50.390;30.778;2024-02-16T13:48:10;25.73;;;15.40;;
46447;SDS011;32145;50.390;30.778;2024-02-16T13:51:07;22.52;;;14.13;;
46447;SDS011;32145;50.390;30.778;2024-02-16T13:54:04;18.67;;;13.15;;
46447;SDS011;32145;50.390;30.778;2024-02-16T13:57:00;15.80;;;10.07;;
46447;SDS011;32145;50.390;30.778;2024-02-16T13:59:56;16.10;;;10.65;;
46447;SDS011;32145;50.390;30.778;2024-02-16T14:02:54;16.98;;;10.75;;
46447;SDS011;32145;50.390;30.778;2024-02-16T14:05:50;15.60;;;9.82;;
46447;SDS011;32145;50.390;30.778;2024-02-16T14:08:47;13.07;;;8.57;;
46447;SDS011;32145;50.390;30.778;2024-02-16T14:11:44;16.05;;;10.85;;
46447;SDS011;32145;50.390;30.778;2024-02-16T14:14:41;30.80;;;19.45;;
46447;SDS011;32145;50.390;30.778;2024-02-16T14:17:37;19.92;;;13.10;;
46447;SDS011;32145;50.390;30.778;2024-02-16T14:20:35;18.45;;;10.90;;
46447;SDS011;32145;50.390;30.778;2024-02-16T14:23:31;19.27;;;12.10;;
46447;SDS011;32145;50.390;30.778;2024-02-16T14:26:28;20.20;;;11.38;;
46447;SDS011;32145;50.390;30.778;2024-02-16T14:29:24;16.52;;;9.68;;
46447;SDS011;32145;50.390;30.778;2024-02-16T14:32:20;19.70;;;12.13;;
46447;SDS011;32145;50.390;30.778;2024-02-16T14:35:14;16.77;;;10.10;;
46447;SDS011;32145;50.390;30.778;2024-02-16T14:38:10;15.82;;;9.60;;
46447;SDS011;32145;50.390;30.778;2024-02-16T14:41:05;22.58;;;13.23;;
46447;SDS011;32145;50.390;30.778;2024-02-16T14:43:59;21.80;;;11.48;;
46447;SDS011;32145;50.390;30.778;2024-02-16T14:46:55;16.30;;;9.77;;
46447;SDS011;32145;50.390;30.778;2024-02-16T14:49:51;17.33;;;11.10;;
46447;SDS011;32145;50.390;30.778;2024-02-16T14:52:47;19.17;;;10.65;;
46447;SDS011;32145;50.390;30.778;2024-02-16T14:55:45;17.20;;;12.95;;
46447;SDS011;32145;50.390;30.778;2024-02-16T14:58:40;14.00;;;9.18;;
46447;SDS011;32145;50.390;30.778;2024-02-16T15:01:34;19.30;;;10.55;;
46447;SDS011;32145;50.390;30.778;2024-02-16T15:04:29;16.80;;;10.93;;
46447;SDS011;32145;50.390;30.778;2024-02-16T15:07:23;17.27;;;10.35;;
46447;SDS011;32145;50.390;30.778;2024-02-16T15:10:17;15.80;;;10.05;;
46447;SDS011;32145;50.390;30.778;2024-02-16T15:13:13;16.40;;;9.80;;
46447;SDS011;32145;50.390;30.778;2024-02-16T15:16:08;15.88;;;10.02;;
46447;SDS011;32145;50.390;30.778;2024-02-16T15:19:02;16.30;;;11.57;;
46447;SDS011;32145;50.390;30.778;2024-02-16T15:21:58;17.48;;;11.35;;
46447;SDS011;32145;50.390;30.778;2024-02-16T15:24:55;15.13;;;10.38;;
46447;SDS011;32145;50.390;30.778;2024-02-16T15:27:51;25.05;;;18.25;;
46447;SDS011;32145;50.390;30.778;2024-02-16T15:30:49;18.83;;;11.50;;
46447;SDS011;32145;50.390;30.778;2024-02-16T15:33:45;20.35;;;12.15;;
46447;SDS011;32145;50.390;30.778;2024-02-16T15:36:41;18.48;;;11.90;;
46447;SDS011;32145;50.390;30.778;2024-02-16T15:39:38;21.48;;;12.50;;
46447;SDS011;32145;50.390;30.778;2024-02-16T15:42:34;18.65;;;12.00;;
46447;SDS011;32145;50.390;30.778;2024-02-16T15:45:30;20.65;;;12.40;;
46447;SDS011;32145;50.390;30.778;2024-02-16T15:48:28;54.92;;;28.33;;
46447;SDS011;32145;50.390;30.778;2024-02-16T15:51:25;26.65;;;16.30;;
46447;SDS011;32145;50.390;30.778;2024-02-16T15:54:21;26.13;;;16.00;;
46447;SDS011;32145;50.390;30.778;2024-02-16T15:57:17;18.65;;;11.00;;
46447;SDS011;32145;50.390;30.778;2024-02-16T16:00:14;17.15;;;11.40;;
46447;SDS011;32145;50.390;30.778;2024-02-16T16:03:11;18.73;;;10.75;;
46447;SDS011;32145;50.390;30.778;2024-02-16T16:06:09;19.23;;;10.57;;
46447;SDS011;32145;50.390;30.778;2024-02-16T16:09:05;17.25;;;10.80;;
46447;SDS011;32145;50.390;30.778;2024-02-16T16:12:00;16.38;;;11.02;;
46447;SDS011;32145;50.390;30.778;2024-02-16T16:14:54;17.67;;;10.98;;
46447;SDS011;32145;50.390;30.778;2024-02-16T16:17:48;17.23;;;10.98;;
46447;SDS011;32145;50.390;30.778;2024-02-16T16:20:43;17.25;;;11.05;;
46447;SDS011;32145;50.390;30.778;2024-02-16T16:23:41;18.42;;;11.02;;
46447;SDS011;32145;50.390;30.778;2024-02-16T16:26:37;18.27;;;11.27;;
46447;SDS011;32145;50.390;30.778;2024-02-16T16:29:33;19.38;;;11.55;;
46447;SDS011;32145;50.390;30.778;2024-02-16T16:32:29;16.95;;;10.70;;
46447;SDS011;32145;50.390;30.778;2024-02-16T16:35:26;18.60;;;11.77;;
46447;SDS011;32145;50.390;30.778;2024-02-16T16:38:22;18.00;;;10.63;;
46447;SDS011;32145;50.390;30.778;2024-02-16T16:41:20;18.33;;;11.30;;
46447;SDS011;32145;50.390;30.778;2024-02-16T16:44:18;18.10;;;10.38;;
46447;SDS011;32145;50.390;30.778;2024-02-16T16:47:14;20.02;;;11.82;;
46447;SDS011;32145;50.390;30.778;2024-02-16T16:50:11;17.85;;;11.27;;
46447;SDS011;32145;50.390;30.778;2024-02-16T16:53:07;18.65;;;10.68;;
46447;SDS011;32145;50.390;30.778;2024-02-16T16:56:03;15.75;;;10.52;;
46447;SDS011;32145;50.390;30.778;2024-02-16T16:59:01;17.73;;;10.32;;